Time;durP1;ratioP1;P1;durP2;ratioP2;P2;SDS_P1;SDS_P2;PMS_P1;PMS_P2;Temp;Humidity;BMP_temperature;BMP_pressure;BME280_temperature;BME280_humidity;BME280_pressure;Samples;Min_cycle;Max_cycle;Signal;HPM_P1;HPM_P2
2023/11/12 00:01:22;;;;;;;;;0.00;0.00;;;;;10.54;100.00;100211.38;5056755;28;74203;-81
2023/11/12 00:03:49;;;;;;;;;0.00;0.00;;;;;10.54;100.00;100213.97;5055807;28;69064;-81
2023/11/12 00:06:14;;;;;;;;;0.00;0.00;;;;;10.53;100.00;100215.72;5056909;28;45432;-80
2023/11/12 00:08:39;;;;;;;;;0.00;0.00;;;;;10.54;100.00;100217.41;5056906;28;70820;-80
2023/11/12 00:11:07;;;;;;;;;0.00;0.00;;;;;10.55;100.00;100221.72;5056092;28;45417;-81
2023/11/12 00:13:32;;;;;;;;;0.00;0.00;;;;;10.56;100.00;100223.41;5090733;27;45299;-81
2023/11/12 00:15:58;;;;;;;;;0.00;0.00;;;;;10.55;100.00;100219.13;5039758;28;45455;-80
2023/11/12 00:18:23;;;;;;;;;0.00;0.00;;;;;10.55;100.00;100215.66;5057810;28;46110;-81
2023/11/12 00:20:51;;;;;;;;;0.00;0.00;;;;;10.56;100.00;100206.94;5057390;28;45381;-80
2023/11/12 00:23:16;;;;;;;;;0.00;0.00;;;;;10.57;100.00;100203.47;5056530;28;45325;-81
2023/11/12 00:25:42;;;;;;;;;0.00;0.00;;;;;10.57;100.00;100196.50;5062311;28;45412;-80
2023/11/12 00:28:07;;;;;;;;;0.00;0.00;;;;;10.55;100.00;100179.22;5075455;27;74572;-80
2023/11/12 00:30:32;;;;;;;;;0.00;0.00;;;;;10.55;100.00;100177.47;5076242;28;45487;-80
2023/11/12 00:32:58;;;;;;;;;0.00;0.00;;;;;10.55;100.00;100161.88;5076488;27;48813;-81
2023/11/12 00:35:24;;;;;;;;;0.00;0.00;;;;;10.54;100.00;100151.50;5076403;27;45220;-81
2023/11/12 00:37:49;;;;;;;;;0.00;0.00;;;;;10.55;100.00;100145.38;5077534;28;46460;-80
2023/11/12 00:40:16;;;;;;;;;0.00;0.00;;;;;10.55;100.00;100156.66;5076448;28;66178;-80
2023/11/12 00:42:41;;;;;;;;;0.00;0.00;;;;;10.50;100.00;100163.78;5076327;28;45529;-81
2023/11/12 00:45:08;;;;;;;;;0.00;0.00;;;;;10.52;100.00;100159.38;5077588;27;45276;-81
2023/11/12 00:47:33;;;;;;;;;0.00;0.00;;;;;10.49;100.00;100149.06;5077282;27;46633;-80
2023/11/12 00:49:59;;;;;;;;;0.00;0.00;;;;;10.54;100.00;100151.50;5076697;28;67299;-81
2023/11/12 00:52:24;;;;;;;;;0.00;0.00;;;;;10.55;100.00;100145.38;5077587;27;45392;-81
2023/11/12 00:54:49;;;;;;;;;3.00;3.00;;;;;10.54;100.00;100125.50;5076270;27;63812;-81
2023/11/12 00:57:14;;;;;;;;;0.00;0.00;;;;;10.55;100.00;100137.56;5076346;28;73922;-81
2023/11/12 00:59:41;;;;;;;;;0.00;0.00;;;;;10.55;100.00;100143.66;5077040;28;49590;-80
2023/11/12 01:02:07;;;;;;;;;0.00;0.00;;;;;10.53;100.00;100134.19;5077579;27;45408;-80
2023/11/12 01:04:33;;;;;;;;;0.00;0.00;;;;;10.51;100.00;100130.81;5076185;28;45436;-80
2023/11/12 01:06:58;;;;;;;;;0.00;0.00;;;;;10.50;100.00;100105.69;5076163;28;46102;-80
2023/11/12 01:09:23;;;;;;;;;0.00;0.00;;;;;10.52;100.00;100112.53;5074820;28;71751;-80
2023/11/12 01:11:49;;;;;;;;;0.00;0.00;;;;;10.53;100.00;100119.44;5075926;28;45339;-80
2023/11/12 01:14:15;;;;;;;;;0.00;0.00;;;;;10.54;100.00;100120.28;5076789;28;51964;-80
2023/11/12 01:16:40;;;;;;;;;0.00;0.00;;;;;10.54;100.00;100126.31;5075854;28;45431;-80
2023/11/12 01:19:05;;;;;;;;;0.00;0.00;;;;;10.52;100.00;100135.94;5076998;27;45391;-80
2023/11/12 01:21:31;;;;;;;;;0.00;0.00;;;;;10.45;100.00;100137.94;5077017;27;45613;-80
2023/11/12 01:23:56;;;;;;;;;0.00;0.00;;;;;10.39;100.00;100139.94;5075522;27;45457;-80
2023/11/12 01:26:23;;;;;;;;;0.00;0.00;;;;;10.35;100.00;100134.00;5063760;28;75238;-80
2023/11/12 01:28:49;;;;;;;;;0.00;0.00;;;;;10.33;100.00;100125.41;5056603;28;45386;-80
2023/11/12 01:31:15;;;;;;;;;0.00;0.00;;;;;10.27;100.00;100123.84;5055733;28;63056;-80
2023/11/12 01:33:40;;;;;;;;;0.00;0.00;;;;;10.26;100.00;100129.09;5056674;28;45385;-80
2023/11/12 01:36:06;;;;;;;;;0.00;0.00;;;;;10.26;100.00;100129.94;5055586;28;74868;-80
2023/11/12 01:38:31;;;;;;;;;0.00;0.00;;;;;10.27;100.00;100136.84;5054698;28;45330;-80
2023/11/12 01:41:02;;;;;;;;;0.00;0.00;;;;;10.24;100.00;100149.13;5056559;28;45356;-80
2023/11/12 01:43:28;;;;;;;;;0.00;0.00;;;;;10.19;100.00;100149.28;5056617;28;45423;-80
2023/11/12 01:45:54;;;;;;;;;0.00;0.00;;;;;10.18;100.00;100144.16;5054975;28;45999;-80
2023/11/12 01:48:20;;;;;;;;;0.00;0.00;;;;;10.14;100.00;100151.22;5055217;28;45413;-80
2023/11/12 01:50:46;;;;;;;;;0.00;0.00;;;;;10.11;100.00;100160.88;5054600;28;45489;-80
2023/11/12 01:53:13;;;;;;;;;0.00;0.00;;;;;10.08;100.00;100149.69;5053828;28;70531;-80
2023/11/12 01:55:39;;;;;;;;;0.00;0.00;;;;;10.08;100.00;100152.28;5038182;28;47047;-80
2023/11/12 01:58:04;;;;;;;;;0.00;0.00;;;;;10.08;100.00;100154.91;5054965;28;45518;-81
2023/11/12 02:00:30;;;;;;;;;0.00;0.00;;;;;10.10;100.00;100154.81;5055118;28;45371;-80
2023/11/12 02:02:56;;;;;;;;;0.75;0.75;;;;;10.10;100.00;100156.56;5054333;28;60668;-80
2023/11/12 02:05:23;;;;;;;;;0.00;0.00;;;;;10.08;100.00;100154.91;5054833;28;47501;-80
2023/11/12 02:07:49;;;;;;;;;0.00;0.00;;;;;10.05;100.00;100152.38;5054587;28;45491;-81
2023/11/12 02:10:16;;;;;;;;;0.00;0.00;;;;;10.03;100.00;100145.56;5088832;27;45439;-80
2023/11/12 02:12:46;;;;;;;;;0.00;0.00;;;;;10.04;100.00;100142.03;5054860;28;45427;-80
2023/11/12 02:15:14;;;;;;;;;0.00;0.00;;;;;10.06;100.00;100148.88;5055907;28;47521;-80
2023/11/12 02:17:45;;;;;;;;;0.00;0.00;;;;;10.05;100.00;100148.94;5054861;28;45518;-81
2023/11/12 02:20:14;;;;;;;;;0.00;0.00;;;;;10.04;100.00;100140.28;5054909;28;45499;-81
2023/11/12 02:22:40;;;;;;;;;0.00;0.00;;;;;10.04;100.00;100142.03;5055676;28;45401;-82
2023/11/12 02:25:05;;;;;;;;;0.00;0.00;;;;;10.01;100.00;100136.94;5055818;28;46602;-81
2023/11/12 02:27:31;;;;;;;;;0.00;0.00;;;;;9.97;100.00;100151.81;5076014;27;45486;-81
2023/11/12 02:29:56;;;;;;;;;0.00;0.00;;;;;9.99;100.00;100136.16;5074739;28;45334;-81
2023/11/12 02:32:29;;;;;;;;;0.00;0.00;;;;;9.92;100.00;100126.88;5076211;27;45453;-81
2023/11/12 02:34:55;;;;;;;;;0.00;0.00;;;;;9.85;100.00;100126.25;5074690;28;46560;-81
2023/11/12 02:37:21;;;;;;;;;0.00;0.00;;;;;9.73;100.00;100130.13;5075629;27;45430;-80
2023/11/12 02:39:47;;;;;;;;;0.00;0.00;;;;;9.61;100.00;100133.16;5076074;27;45482;-81
2023/11/12 02:42:13;;;;;;;;;0.00;0.00;;;;;9.47;100.00;100129.31;5075236;27;65584;-81
2023/11/12 02:44:38;;;;;;;;;0.00;0.00;;;;;9.42;100.00;100135.56;5075655;27;45684;-81
2023/11/12 02:47:06;;;;;;;;;0.00;0.00;;;;;9.33;100.00;100139.28;5075807;27;47959;-81
2023/11/12 02:49:55;;;;;;;;;0.00;0.00;;;;;9.35;100.00;100134.91;5076133;27;45289;-81
2023/11/12 02:52:21;;;;;;;;;0.00;0.00;;;;;9.36;100.00;100134.00;5076100;27;45459;-80
2023/11/12 02:54:46;;;;;;;;;0.00;0.00;;;;;9.34;100.00;100132.34;5056663;28;75611;-80
2023/11/12 02:57:11;;;;;;;;;0.00;0.00;;;;;9.27;100.00;100124.78;5073560;28;71767;-80
2023/11/12 02:59:36;;;;;;;;;0.00;0.00;;;;;9.29;100.00;100125.56;5073542;28;68220;-81
2023/11/12 03:02:02;;;;;;;;;0.00;0.00;;;;;9.35;100.00;100121.91;5076329;27;50714;-81
2023/11/12 03:04:27;;;;;;;;;0.00;0.00;;;;;9.39;100.00;100114.88;5077542;27;46143;-81
2023/11/12 03:06:52;;;;;;;;;0.00;0.00;;;;;9.44;100.00;100116.41;5077245;28;66291;-81
2023/11/12 03:09:18;;;;;;;;;0.00;0.00;;;;;9.45;100.00;100115.53;5077045;28;69409;-80
2023/11/12 03:11:43;;;;;;;;;0.00;0.00;;;;;9.47;100.00;100110.25;5060288;28;59166;-81
2023/11/12 03:14:09;;;;;;;;;0.00;0.00;;;;;9.49;100.00;100111.91;5078917;27;50638;-81
2023/11/12 03:16:34;;;;;;;;;0.00;0.00;;;;;9.48;100.00;100110.19;5077810;28;45381;-81
2023/11/12 03:19:00;;;;;;;;;0.00;0.00;;;;;9.51;100.00;100111.84;5060514;28;45356;-80
2023/11/12 03:21:28;;;;;;;;;0.00;0.00;;;;;9.50;100.00;100100.59;5079189;27;45276;-81
2023/11/12 03:23:55;;;;;;;;;0.00;0.00;;;;;9.47;100.00;100107.66;5077637;28;46535;-81
2023/11/12 03:26:20;;;;;;;;;0.00;0.00;;;;;9.46;100.00;100121.56;5065808;28;45410;-81
2023/11/12 03:28:45;;;;;;;;;0.00;0.00;;;;;9.44;100.00;100123.34;5039663;28;70517;-81
2023/11/12 03:31:10;;;;;;;;;0.00;0.00;;;;;9.43;100.00;100119.06;5057505;28;67378;-81
2023/11/12 03:33:36;;;;;;;;;0.00;0.00;;;;;9.40;100.00;100120.00;5056954;28;75403;-81
2023/11/12 03:36:02;;;;;;;;;0.00;0.00;;;;;9.34;100.00;100120.19;5058416;28;45492;-81
2023/11/12 03:38:28;;;;;;;;;0.00;0.00;;;;;9.30;100.00;100116.88;5057250;28;45328;-81
2023/11/12 03:40:55;;;;;;;;;0.00;0.00;;;;;9.31;100.00;100115.13;5058356;28;45413;-81
2023/11/12 03:43:20;;;;;;;;;0.00;0.00;;;;;9.30;100.00;100122.09;5057163;28;47255;-80
2023/11/12 03:45:45;;;;;;;;;0.00;0.00;;;;;9.32;100.00;100113.38;5058361;28;45319;-81
2023/11/12 03:48:10;;;;;;;;;0.00;0.00;;;;;9.35;100.00;100116.72;5056090;28;58099;-81
2023/11/12 03:50:37;;;;;;;;;0.00;0.00;;;;;9.34;100.00;100108.97;5056554;28;55997;-81
2023/11/12 03:53:02;;;;;;;;;0.00;0.00;;;;;9.38;100.00;100115.75;5057014;28;46284;-81
2023/11/12 03:55:27;;;;;;;;;0.00;0.00;;;;;9.39;100.00;100117.47;5055991;28;73333;-81
2023/11/12 03:57:53;;;;;;;;;0.00;0.00;;;;;9.37;100.00;100107.13;5058005;28;51356;-81
2023/11/12 04:00:18;;;;;;;;;0.00;0.00;;;;;9.39;100.00;100107.91;5089811;27;71471;-81
2023/11/12 04:02:44;;;;;;;;;0.00;0.00;;;;;9.34;100.00;100102.03;5057432;28;47228;-81
2023/11/12 04:05:09;;;;;;;;;0.00;0.00;;;;;9.33;100.00;100108.13;5056873;28;45506;-81
2023/11/12 04:07:35;;;;;;;;;0.00;0.00;;;;;9.29;100.00;100098.75;5056920;28;45422;-81
2023/11/12 04:10:00;;;;;;;;;0.00;0.00;;;;;9.27;100.00;100101.41;5056626;28;45542;-81
2023/11/12 04:12:25;;;;;;;;;0.00;0.00;;;;;9.26;100.00;100097.09;5057040;28;60062;-81
2023/11/12 04:14:51;;;;;;;;;0.00;0.00;;;;;9.24;100.00;100105.84;5056569;28;45486;-81
2023/11/12 04:17:17;;;;;;;;;0.00;0.00;;;;;9.27;100.00;100095.38;5057404;28;50738;-81
2023/11/12 04:19:43;;;;;;;;;0.00;0.00;;;;;9.24;100.00;100095.44;5057769;28;45428;-81
2023/11/12 04:22:08;;;;;;;;;0.00;0.00;;;;;9.20;100.00;100088.66;5056415;28;45571;-82
2023/11/12 04:24:34;;;;;;;;;0.00;0.00;;;;;9.14;100.00;100092.31;5055904;28;69787;-81
2023/11/12 04:26:59;;;;;;;;;0.00;0.00;;;;;9.14;100.00;100092.31;5074885;27;45282;-81
2023/11/12 04:29:26;;;;;;;;;0.00;0.00;;;;;9.13;100.00;100089.78;5077954;27;45262;-82
2023/11/12 04:31:51;;;;;;;;;0.00;0.00;;;;;9.11;100.00;100088.06;5077575;27;47393;-82
2023/11/12 04:34:17;;;;;;;;;0.00;0.00;;;;;9.12;100.00;100091.53;5077957;27;45279;-81
2023/11/12 04:36:43;;;;;;;;;0.00;0.00;;;;;9.14;100.00;100087.13;5076051;28;62227;-81
2023/11/12 04:39:09;;;;;;;;;0.00;0.00;;;;;9.20;100.00;100086.91;5077949;27;45435;-81
2023/11/12 04:41:34;;;;;;;;;0.00;0.00;;;;;9.25;100.00;100092.81;5077477;27;59189;-82
2023/11/12 04:44:00;;;;;;;;;0.00;0.00;;;;;9.28;100.00;100084.06;5058554;28;72476;-81
2023/11/12 04:46:26;;;;;;;;;0.00;0.00;;;;;9.29;100.00;100084.00;5076148;28;45410;-81
2023/11/12 04:48:52;;;;;;;;;0.00;0.00;;;;;9.29;100.00;100075.38;5076765;28;45413;-82
2023/11/12 04:51:17;;;;;;;;;0.00;0.00;;;;;9.26;100.00;100073.72;5076662;28;45505;-82
2023/11/12 04:53:43;;;;;;;;;0.00;0.00;;;;;9.25;100.00;100073.78;5059411;28;45485;-82
2023/11/12 04:56:09;;;;;;;;;0.00;0.00;;;;;9.25;100.00;100079.00;5076531;28;45746;-82
2023/11/12 04:58:35;;;;;;;;;0.00;0.00;;;;;9.26;100.00;100073.72;5076672;28;45492;-82
2023/11/12 05:01:03;;;;;;;;;0.00;0.00;;;;;9.25;100.00;100066.00;5077119;27;46493;-81
2023/11/12 05:03:28;;;;;;;;;0.00;0.00;;;;;9.24;100.00;100064.28;5076458;28;45320;-81
2023/11/12 05:05:53;;;;;;;;;0.00;0.00;;;;;9.24;100.00;100065.13;5076080;28;52832;-82
2023/11/12 05:08:19;;;;;;;;;0.00;0.00;;;;;9.23;100.00;100053.06;5075120;28;70268;-81
2023/11/12 05:10:45;;;;;;;;;0.00;0.00;;;;;9.19;100.00;100050.59;5077134;27;45443;-81
2023/11/12 05:13:10;;;;;;;;;0.00;0.00;;;;;9.18;100.00;100048.94;5077272;27;45330;-81
2023/11/12 05:15:36;;;;;;;;;0.00;0.00;;;;;9.15;100.00;100034.28;5077182;27;45309;-81
2023/11/12 05:18:05;;;;;;;;;0.00;0.00;;;;;9.10;100.00;100029.25;5076083;28;45411;-81
2023/11/12 05:20:32;;;;;;;;;0.00;0.00;;;;;9.11;100.00;100025.75;5059586;28;45761;-81
2023/11/12 05:22:58;;;;;;;;;0.00;0.00;;;;;9.10;100.00;100025.78;5075798;28;45273;-81
2023/11/12 05:25:23;;;;;;;;;0.00;0.00;;;;;9.07;100.00;100024.16;5072584;27;45478;-81
2023/11/12 05:27:48;;;;;;;;;0.00;0.00;;;;;9.09;100.00;100026.72;5054766;28;68830;-81
2023/11/12 05:30:13;;;;;;;;;0.00;0.00;;;;;9.09;100.00;100031.91;5054103;28;68777;-81
2023/11/12 05:32:39;;;;;;;;;0.00;0.00;;;;;9.07;100.00;100031.94;5056686;28;45421;-80
2023/11/12 05:35:04;;;;;;;;;0.00;0.00;;;;;9.10;100.00;100037.06;5055903;28;69239;-81
2023/11/12 05:37:30;;;;;;;;;0.00;0.00;;;;;9.11;100.00;100030.94;5055382;28;45470;-82
2023/11/12 05:39:55;;;;;;;;;0.00;0.00;;;;;9.12;100.00;100031.81;5055333;28;46594;-81
2023/11/12 05:42:20;;;;;;;;;0.00;0.00;;;;;9.14;100.00;100024.81;5056278;28;60988;-81
2023/11/12 05:44:46;;;;;;;;;0.00;0.00;;;;;9.15;100.00;100026.50;5054023;28;68397;-82
2023/11/12 05:47:11;;;;;;;;;0.00;0.00;;;;;9.11;100.00;100017.13;5056469;28;45972;-82
2023/11/12 05:49:36;;;;;;;;;0.00;0.00;;;;;9.15;100.00;100029.09;5054336;28;69669;-81
2023/11/12 05:52:02;;;;;;;;;0.00;0.00;;;;;9.17;100.00;100029.88;5054284;28;65911;-81
2023/11/12 05:54:27;;;;;;;;;0.00;0.00;;;;;9.18;100.00;100026.41;5056566;28;45512;-81
2023/11/12 05:56:52;;;;;;;;;0.00;0.00;;;;;9.19;100.00;100033.28;5054059;28;72722;-80
2023/11/12 05:59:18;;;;;;;;;0.00;0.00;;;;;9.18;100.00;100023.81;5055917;28;45378;-81
2023/11/12 06:01:43;;;;;;;;;0.00;0.00;;;;;9.19;100.00;100022.03;5053893;28;73375;-81
2023/11/12 06:04:08;;;;;;;;;0.00;0.00;;;;;9.18;100.00;100017.78;5056390;28;45294;-81
2023/11/12 06:06:34;;;;;;;;;0.00;0.00;;;;;9.17;100.00;100019.50;5054098;28;70018;-81
2023/11/12 06:08:59;;;;;;;;;0.00;0.00;;;;;9.18;100.00;100020.38;5053553;28;74369;-80
2023/11/12 06:11:25;;;;;;;;;0.00;0.00;;;;;9.18;100.00;100013.41;5053713;28;73363;-80
2023/11/12 06:13:50;;;;;;;;;0.00;0.00;;;;;9.18;100.00;100022.97;5054638;28;45480;-81
2023/11/12 06:16:15;;;;;;;;;0.00;0.00;;;;;9.15;100.00;100023.91;5054959;28;72143;-80
2023/11/12 06:18:41;;;;;;;;;0.00;0.00;;;;;9.18;100.00;100017.78;5054909;28;75391;-80
2023/11/12 06:21:06;;;;;;;;;0.00;0.00;;;;;9.19;100.00;100016.84;5053891;28;65073;-81
2023/11/12 06:23:31;;;;;;;;;0.00;0.00;;;;;9.21;100.00;100022.84;5056152;28;45381;-81
2023/11/12 06:25:57;;;;;;;;;0.00;0.00;;;;;9.23;100.00;100014.13;5062083;28;64722;-80
2023/11/12 06:28:22;;;;;;;;;0.00;0.00;;;;;9.22;100.00;100014.16;5073400;28;73684;-81
2023/11/12 06:30:48;;;;;;;;;0.00;0.00;;;;;9.21;100.00;100012.44;5075606;27;45378;-80
2023/11/12 06:33:14;;;;;;;;;0.00;0.00;;;;;9.20;100.00;100016.81;5076308;27;45414;-81
2023/11/12 06:35:40;;;;;;;;;0.00;0.00;;;;;9.22;100.00;100012.41;5075343;28;45298;-80
2023/11/12 06:38:05;;;;;;;;;0.00;0.00;;;;;9.25;100.00;100019.25;5078525;27;46348;-81
2023/11/12 06:40:31;;;;;;;;;0.00;0.00;;;;;9.23;100.00;100021.91;5078234;27;45439;-80
2023/11/12 06:42:56;;;;;;;;;0.00;0.00;;;;;9.23;100.00;100016.72;5079504;27;45352;-80
2023/11/12 06:45:22;;;;;;;;;0.00;0.00;;;;;9.23;100.00;100021.91;5078601;27;70100;-80
2023/11/12 06:47:47;;;;;;;;;0.00;0.00;;;;;9.20;100.00;100019.41;5079466;28;45554;-81
2023/11/12 06:50:12;;;;;;;;;0.00;0.00;;;;;9.21;100.00;100026.31;5077193;28;71987;-81
2023/11/12 06:52:38;;;;;;;;;0.00;0.00;;;;;9.17;100.00;100019.50;5079551;27;45371;-80
2023/11/12 06:55:04;;;;;;;;;0.00;0.00;;;;;9.20;100.00;100018.56;5079252;27;50090;-81
2023/11/12 06:57:29;;;;;;;;;0.00;0.00;;;;;9.20;100.00;100015.97;5077558;27;45427;-81
2023/11/12 06:59:55;;;;;;;;;0.00;0.00;;;;;9.16;100.00;100022.16;5078059;27;45251;-80
2023/11/12 07:02:20;;;;;;;;;0.00;0.00;;;;;9.18;100.00;100033.34;5061400;28;45315;-80
2023/11/12 07:04:47;;;;;;;;;0.00;0.00;;;;;9.18;100.00;100023.81;5079015;27;54695;-81
2023/11/12 07:07:13;;;;;;;;;0.00;0.00;;;;;9.14;100.00;100024.81;5079139;27;46916;-80
2023/11/12 07:09:39;;;;;;;;;0.00;0.00;;;;;9.17;100.00;100029.88;5078118;27;72773;-81
2023/11/12 07:12:06;;;;;;;;;0.00;0.00;;;;;9.13;100.00;100040.44;5060812;28;45378;-80
2023/11/12 07:14:31;;;;;;;;;3.00;1.00;;;;;9.11;100.00;100033.53;5077797;28;45381;-80
2023/11/12 07:16:56;;;;;;;;;0.00;0.00;;;;;9.12;100.00;100034.41;5076798;27;76531;-81
2023/11/12 07:19:22;;;;;;;;;0.00;0.00;;;;;9.14;100.00;100043.00;5059573;28;73451;-81
2023/11/12 07:21:47;;;;;;;;;0.00;0.00;;;;;9.17;100.00;100042.03;5061005;28;45437;-81
2023/11/12 07:24:13;;;;;;;;;0.00;0.00;;;;;9.17;100.00;100039.44;5077801;28;45411;-80
2023/11/12 07:26:38;;;;;;;;;0.00;0.00;;;;;9.15;100.00;100039.47;5062893;28;45998;-81
2023/11/12 07:29:04;;;;;;;;;0.00;0.00;;;;;9.11;100.00;100048.28;5057864;28;65596;-80
2023/11/12 07:31:29;;;;;;;;;0.00;0.00;;;;;9.08;100.00;100041.44;5073299;27;69285;-80
2023/11/12 07:33:55;;;;;;;;;0.00;0.00;;;;;9.10;100.00;100038.78;5058490;28;45385;-80
2023/11/12 07:36:21;;;;;;;;;0.00;0.00;;;;;9.07;100.00;100052.72;5058456;28;45426;-81
2023/11/12 07:38:47;;;;;;;;;0.00;0.00;;;;;9.09;100.00;100053.53;5074102;28;45469;-81
2023/11/12 07:41:12;;;;;;;;;0.00;0.00;;;;;9.09;100.00;100053.53;5058142;28;45338;-81
2023/11/12 07:43:38;;;;;;;;;0.00;0.00;;;;;9.12;100.00;100060.38;5073743;28;55714;-81
2023/11/12 07:46:04;;;;;;;;;0.00;0.00;;;;;9.13;100.00;100054.25;5073880;28;47105;-81
2023/11/12 07:48:30;;;;;;;;;0.00;0.00;;;;;9.18;100.00;100064.50;5056237;28;45496;-81
2023/11/12 07:50:59;;;;;;;;;0.00;0.00;;;;;9.20;100.00;100060.09;5058470;28;45338;-81
2023/11/12 07:53:28;;;;;;;;;0.00;0.00;;;;;9.17;100.00;100062.81;5057233;28;45350;-81
2023/11/12 07:55:53;;;;;;;;;0.00;0.00;;;;;9.14;100.00;100062.88;5056563;28;45665;-81
2023/11/12 07:58:19;;;;;;;;;0.00;0.00;;;;;9.11;100.00;100058.66;5073018;28;70145;-81
2023/11/12 08:00:44;;;;;;;;;0.00;0.00;;;;;9.14;100.00;100066.34;5057984;28;45484;-81
2023/11/12 08:03:10;;;;;;;;;0.00;0.00;;;;;9.15;100.00;100068.03;5073802;28;45514;-81
2023/11/12 08:05:35;;;;;;;;;0.00;0.00;;;;;9.15;100.00;100067.19;5057822;28;46683;-81
2023/11/12 08:08:01;;;;;;;;;0.00;0.00;;;;;9.20;100.00;100067.91;5072798;28;67263;-81
2023/11/12 08:10:26;;;;;;;;;0.00;0.00;;;;;9.23;100.00;100071.25;5057950;28;45424;-81
2023/11/12 08:12:52;;;;;;;;;0.00;0.00;;;;;9.24;100.00;100077.28;5072686;28;70585;-81
2023/11/12 08:15:17;;;;;;;;;0.00;0.00;;;;;9.26;100.00;100072.88;5073345;28;45374;-80
2023/11/12 08:17:43;;;;;;;;;1.00;1.00;;;;;9.26;100.00;100084.09;5057889;28;45392;-81
2023/11/12 08:20:10;;;;;;;;;0.00;0.00;;;;;9.25;100.00;100072.03;5073588;27;45318;-81
2023/11/12 08:22:36;;;;;;;;;0.00;0.00;;;;;9.24;100.00;100075.53;5057980;28;45467;-81
2023/11/12 08:25:01;;;;;;;;;0.00;0.00;;;;;9.25;100.00;100081.59;5072801;28;46211;-81
2023/11/12 08:27:26;;;;;;;;;0.00;0.00;;;;;9.29;100.00;100086.59;5055542;28;71711;-81
2023/11/12 08:29:51;;;;;;;;;0.00;0.00;;;;;9.33;100.00;100084.75;5057246;28;45373;-80
2023/11/12 08:32:17;;;;;;;;;0.00;0.00;;;;;9.35;100.00;100082.94;5057739;28;45495;-81
2023/11/12 08:34:43;;;;;;;;;0.00;0.00;;;;;9.40;100.00;100081.06;5056399;28;46138;-81
2023/11/12 08:37:08;;;;;;;;;0.00;0.00;;;;;9.43;100.00;100080.94;5055432;28;72733;-80
2023/11/12 08:39:33;;;;;;;;;0.00;0.00;;;;;9.48;100.00;100084.22;5056433;28;64050;-81
2023/11/12 08:41:59;;;;;;;;;0.00;0.00;;;;;9.56;100.00;100091.75;5057145;28;54493;-81
2023/11/12 08:44:25;;;;;;;;;0.00;0.00;;;;;9.60;100.00;100085.56;5057323;28;46476;-81
2023/11/12 08:46:51;;;;;;;;;0.00;0.00;;;;;9.63;100.00;100089.78;5056093;28;45428;-81
2023/11/12 08:49:16;;;;;;;;;0.00;0.00;;;;;9.63;100.00;100090.63;5056218;28;45417;-81
2023/11/12 08:51:42;;;;;;;;;0.00;0.00;;;;;9.64;100.00;100104.50;5056036;28;45404;-81
2023/11/12 08:54:09;;;;;;;;;0.00;0.00;;;;;9.68;100.00;100101.72;5054812;28;68389;-81
2023/11/12 08:56:34;;;;;;;;;0.00;0.00;;;;;9.71;100.00;100113.75;5057051;28;45385;-81
2023/11/12 08:59:00;;;;;;;;;0.00;0.00;;;;;9.75;100.00;100111.88;5055199;28;45340;-81
2023/11/12 09:01:25;;;;;;;;;0.00;0.00;;;;;9.79;100.00;100116.09;5055472;28;45321;-82
2023/11/12 09:03:52;;;;;;;;;0.00;0.00;;;;;9.84;100.00;100116.75;5056358;28;70810;-82
2023/11/12 09:06:18;;;;;;;;;0.00;0.00;;;;;9.86;100.00;100121.00;5055924;28;45376;-81
2023/11/12 09:08:45;;;;;;;;;0.00;0.00;;;;;9.89;100.00;100125.25;5057006;28;45548;-82
2023/11/12 09:11:11;;;;;;;;;0.00;0.00;;;;;9.93;100.00;100123.38;5057099;28;45411;-82
2023/11/12 09:13:37;;;;;;;;;0.00;0.00;;;;;9.94;100.00;100125.94;5038892;28;48342;-82
2023/11/12 09:16:04;;;;;;;;;0.00;0.00;;;;;9.96;100.00;100136.28;5057023;28;45464;-81
2023/11/12 09:18:29;;;;;;;;;0.00;0.00;;;;;9.99;100.00;100125.75;5057236;28;45417;-82
2023/11/12 09:20:55;;;;;;;;;0.00;0.00;;;;;10.00;100.00;100130.06;5055559;28;45422;-82
2023/11/12 09:23:20;;;;;;;;;0.00;0.00;;;;;10.04;100.00;100129.88;5072205;27;47043;-82
2023/11/12 09:25:45;;;;;;;;;0.00;0.00;;;;;10.13;100.00;100143.47;5088407;27;71564;-82
2023/11/12 09:28:11;;;;;;;;;0.00;0.00;;;;;10.15;100.00;100152.91;5055648;28;45331;-82
2023/11/12 09:30:37;;;;;;;;;0.00;0.00;;;;;10.14;100.00;100151.22;5056603;28;45322;-82
2023/11/12 09:33:04;;;;;;;;;0.00;0.00;;;;;10.12;100.00;100141.75;5055523;28;45370;-82
2023/11/12 09:35:30;;;;;;;;;0.00;0.00;;;;;10.16;100.00;100141.59;5056673;28;45285;-82
2023/11/12 09:37:55;;;;;;;;;0.00;0.00;;;;;10.32;100.00;100138.47;5055147;28;45581;-82
2023/11/12 09:40:22;;;;;;;;;0.00;0.00;;;;;10.53;100.00;100147.19;5056531;28;45390;-82
2023/11/12 09:42:51;;;;;;;;;0.00;0.00;;;;;10.63;100.00;100156.38;5055457;28;46357;-81
2023/11/12 09:45:20;;;;;;;;;0.00;0.00;;;;;10.72;100.00;100150.81;5055439;28;45329;-82
2023/11/12 09:47:58;;;;;;;;;0.00;0.00;;;;;10.79;100.00;100162.69;5054333;28;66837;-81
2023/11/12 09:50:24;;;;;;;;;0.00;0.00;;;;;10.82;100.00;100164.31;5055061;28;45493;-82
2023/11/12 09:52:52;;;;;;;;;0.00;0.00;;;;;10.97;100.00;100174.09;5056474;28;45408;-82
2023/11/12 09:55:19;;;;;;;;;0.00;0.00;;;;;11.19;100.00;100158.47;5056340;28;45291;-83
2023/11/12 09:57:46;;;;;;;;;0.00;0.00;;;;;11.46;100.00;100158.25;5056583;28;45396;-82
2023/11/12 10:00:12;;;;;;;;;0.00;0.00;;;;;11.56;100.00;100161.31;5056306;28;45333;-82
2023/11/12 10:02:39;;;;;;;;;0.00;0.00;;;;;11.45;100.00;100181.78;5054900;28;46319;-82
2023/11/12 10:05:10;;;;;;;;;0.00;0.00;;;;;11.36;100.00;100170.81;5071457;28;45450;-82
2023/11/12 10:07:36;;;;;;;;;0.00;0.00;;;;;11.35;100.00;100171.72;5056415;28;45396;-82
2023/11/12 10:10:21;;;;;;;;;0.00;0.00;;;;;11.26;100.00;100171.28;5054818;28;45342;-81
2023/11/12 10:12:46;;;;;;;;;0.00;0.00;;;;;11.20;100.00;100160.19;5056072;28;47120;-82
2023/11/12 10:15:12;;;;;;;;;0.00;0.00;;;;;11.27;100.00;100162.53;5054784;28;45484;-82
2023/11/12 10:17:46;;;;;;;;;0.00;0.00;;;;;11.42;100.00;100159.28;5071383;28;55784;-82
2023/11/12 10:20:20;;;;;;;;;0.00;0.00;;;;;11.58;100.00;100155.13;5054722;28;65599;-82
2023/11/12 10:22:46;;;;;;;;;0.00;0.00;;;;;11.71;100.00;100152.84;5054586;28;45395;-82
2023/11/12 10:25:11;;;;;;;;;0.00;0.00;;;;;11.90;100.00;100150.31;5057619;28;45357;-81
2023/11/12 10:27:53;;;;;;;;;0.00;0.00;;;;;12.03;100.00;100144.56;5076220;27;45364;-82
2023/11/12 10:30:20;;;;;;;;;1.00;1.00;;;;;12.24;100.00;100155.78;5074669;28;45359;-81
2023/11/12 10:32:46;;;;;;;;;0.00;0.00;;;;;12.32;100.00;100151.94;5075995;27;46421;-81
2023/11/12 10:35:30;;;;;;;;;0.00;0.00;;;;;12.49;100.00;100145.09;5057615;28;49159;-82
2023/11/12 10:37:57;;;;;;;;;0.00;0.00;;;;;12.69;100.00;100144.16;5076161;27;45355;-82
2023/11/12 10:40:24;;;;;;;;;0.00;0.00;;;;;12.86;100.00;100151.19;5074706;27;45464;-82
2023/11/12 10:42:51;;;;;;;;;0.00;0.00;;;;;13.05;100.00;100151.16;5074834;28;46637;-82
2023/11/12 10:45:17;;;;;;;;;0.00;0.00;;;;;13.21;100.00;100159.09;5074795;28;45380;-82
2023/11/12 10:47:46;;;;;;;;;0.00;0.00;;;;;13.28;100.00;100171.78;5056962;28;68556;-82
2023/11/12 10:50:15;;;;;;;;;0.00;0.00;;;;;13.15;100.00;100176.78;5074355;28;45389;-82
2023/11/12 10:52:42;;;;;;;;;0.00;0.00;;;;;12.99;100.00;100173.19;5075764;27;47099;-82
2023/11/12 10:55:09;;;;;;;;;0.00;0.00;;;;;12.88;100.00;100176.31;5057894;28;45246;-82
2023/11/12 10:57:35;;;;;;;;;0.00;0.00;;;;;12.80;100.00;100178.47;5074911;28;45566;-82
2023/11/12 11:00:06;;;;;;;;;0.00;0.00;;;;;12.76;100.00;100179.53;5074453;28;45377;-82
2023/11/12 11:02:32;;;;;;;;;0.00;0.00;;;;;12.70;100.00;100185.00;5074483;27;47510;-82
2023/11/12 11:04:59;;;;;;;;;0.00;0.00;;;;;12.63;100.00;100181.84;5075291;27;45393;-82
2023/11/12 11:07:24;;;;;;;;;0.00;0.00;;;;;12.59;100.00;100175.94;5075754;27;45399;-82
2023/11/12 11:09:50;;;;;;;;;0.00;0.00;;;;;12.57;100.00;100183.00;5074767;28;45381;-82
2023/11/12 11:12:17;;;;;;;;;0.00;0.00;;;;;12.53;100.00;100185.78;5057503;28;47179;-81
2023/11/12 11:14:42;;;;;;;;;0.00;0.00;;;;;12.49;100.00;100186.84;5075460;27;45511;-82
2023/11/12 11:17:08;;;;;;;;;0.00;0.00;;;;;12.44;100.00;100189.66;5074881;27;64187;-82